Time;durP1;ratioP1;P1;durP2;ratioP2;P2;SDS_P1;SDS_P2;PMS_P1;PMS_P2;Temp;Humidity;BMP_temperature;BMP_pressure;BME280_temperature;BME280_humidity;BME280_pressure;Samples;Min_cycle;Max_cycle;Signal;HPM_P1;HPM_P2
2022/09/16 00:02:24;;;;;;;134.10;126.57;;;;;;;;;;10153798;28;20084;-68
2022/09/16 00:07:20;;;;;;;138.15;130.10;;;;;;;;;;10188649;28;20054;-68
2022/09/16 00:12:17;;;;;;;141.23;133.27;;;;;;;;;;10192149;28;20046;-68
2022/09/16 00:17:13;;;;;;;139.10;131.30;;;;;;;;;;10186429;28;20052;-68
2022/09/16 00:22:09;;;;;;;134.68;126.43;;;;;;;;;;10191537;28;20046;-69
2022/09/16 00:27:06;;;;;;;139.50;131.68;;;;;;;;;;10192868;28;20419;-68
2022/09/16 00:32:02;;;;;;;141.07;133.05;;;;;;;;;;10157094;28;20519;-68
2022/09/16 00:36:58;;;;;;;140.05;132.25;;;;;;;;;;10184661;28;20047;-68
2022/09/16 00:41:54;;;;;;;141.52;133.50;;;;;;;;;;10160049;28;20200;-68
2022/09/16 00:46:51;;;;;;;123.60;116.60;;;;;;;;;;10190862;28;20042;-68
2022/09/16 00:51:49;;;;;;;113.32;106.68;;;;;;;;;;10160365;28;20326;-68
2022/09/16 00:56:46;;;;;;;105.78;98.95;;;;;;;;;;10175001;28;20670;-68
2022/09/16 01:01:43;;;;;;;103.15;97.13;;;;;;;;;;10160103;28;20411;-68
2022/09/16 01:06:40;;;;;;;102.85;96.85;;;;;;;;;;10187517;28;20471;-69
2022/09/16 01:11:36;;;;;;;104.32;97.93;;;;;;;;;;10199257;28;20430;-68
2022/09/16 01:16:34;;;;;;;103.82;97.32;;;;;;;;;;10198088;28;20389;-68
2022/09/16 01:21:44;;;;;;;103.30;96.93;;;;;;;;;;10198471;28;20042;-69
2022/09/16 01:27:04;;;;;;;105.10;98.68;;;;;;;;;;10198322;28;20061;-68
2022/09/16 01:32:06;;;;;;;102.07;95.90;;;;;;;;;;10197913;28;20046;-69
2022/09/16 01:37:11;;;;;;;101.60;95.40;;;;;;;;;;10198530;28;20052;-68
2022/09/16 01:42:10;;;;;;;101.75;95.45;;;;;;;;;;10174426;28;20543;-69
2022/09/16 01:47:20;;;;;;;102.03;95.43;;;;;;;;;;10191194;28;20053;-69
2022/09/16 01:52:19;;;;;;;102.75;96.50;;;;;;;;;;10196885;28;20068;-69
2022/09/16 01:57:18;;;;;;;105.07;98.47;;;;;;;;;;10197292;28;20060;-69
2022/09/16 02:02:15;;;;;;;100.70;94.32;;;;;;;;;;10162104;28;20046;-69
2022/09/16 02:07:14;;;;;;;102.75;95.95;;;;;;;;;;10181238;28;20165;-69
2022/09/16 02:12:13;;;;;;;100.88;94.25;;;;;;;;;;10157577;28;20055;-69
2022/09/16 02:17:10;;;;;;;101.50;94.55;;;;;;;;;;10174012;28;20504;-69
2022/09/16 02:22:08;;;;;;;102.28;95.88;;;;;;;;;;10157329;28;20054;-69
2022/09/16 02:27:07;;;;;;;101.35;94.95;;;;;;;;;;10166688;28;20775;-69
2022/09/16 02:32:06;;;;;;;99.95;93.35;;;;;;;;;;10156903;28;20049;-68
2022/09/16 02:37:07;;;;;;;101.15;94.60;;;;;;;;;;10188658;28;20046;-69
2022/09/16 02:42:04;;;;;;;100.45;93.60;;;;;;;;;;10194825;28;20056;-69
2022/09/16 02:47:07;;;;;;;98.80;92.07;;;;;;;;;;10187939;28;20049;-69
2022/09/16 02:52:06;;;;;;;95.18;89.00;;;;;;;;;;10189344;28;20042;-69
2022/09/16 02:57:03;;;;;;;96.70;90.28;;;;;;;;;;10188273;28;20049;-69
2022/09/16 03:02:00;;;;;;;95.57;89.13;;;;;;;;;;10184089;28;20069;-69
2022/09/16 03:06:56;;;;;;;100.80;94.35;;;;;;;;;;10186473;28;20081;-69
2022/09/16 03:11:53;;;;;;;99.05;92.50;;;;;;;;;;10169465;28;20073;-69
2022/09/16 03:17:03;;;;;;;99.65;92.65;;;;;;;;;;10185479;28;20056;-69
2022/09/16 03:22:09;;;;;;;98.78;92.05;;;;;;;;;;10161763;28;20054;-69
2022/09/16 03:27:08;;;;;;;95.30;88.95;;;;;;;;;;10181288;28;20046;-69
2022/09/16 03:32:09;;;;;;;96.50;89.95;;;;;;;;;;10155140;28;20123;-73
2022/09/16 03:37:07;;;;;;;93.10;86.70;;;;;;;;;;10176095;28;20054;-73
2022/09/16 03:42:06;;;;;;;95.22;88.93;;;;;;;;;;10154198;28;20049;-73
2022/09/16 03:47:02;;;;;;;96.25;89.50;;;;;;;;;;10156691;28;20057;-72
2022/09/16 03:52:00;;;;;;;98.78;91.85;;;;;;;;;;10154257;28;20050;-73
2022/09/16 03:56:56;;;;;;;92.25;85.85;;;;;;;;;;10185395;28;20056;-73
2022/09/16 04:01:53;;;;;;;92.47;86.10;;;;;;;;;;10165965;28;20054;-73
2022/09/16 04:06:49;;;;;;;93.47;86.82;;;;;;;;;;10183818;28;20046;-72
2022/09/16 04:11:45;;;;;;;93.95;86.95;;;;;;;;;;10167730;28;20047;-73
2022/09/16 04:16:41;;;;;;;90.50;84.10;;;;;;;;;;10182584;28;20521;-72
2022/09/16 04:21:40;;;;;;;95.75;88.95;;;;;;;;;;10193094;28;20042;-72
2022/09/16 04:26:37;;;;;;;92.43;85.72;;;;;;;;;;10192533;28;20057;-72
2022/09/16 04:31:33;;;;;;;97.00;90.40;;;;;;;;;;10193123;28;20049;-73
2022/09/16 04:36:29;;;;;;;94.32;87.63;;;;;;;;;;10192251;28;20424;-70
2022/09/16 04:41:25;;;;;;;85.93;79.95;;;;;;;;;;10193043;28;20049;-69
2022/09/16 04:46:23;;;;;;;92.35;85.40;;;;;;;;;;10185161;28;20538;-69
2022/09/16 04:51:19;;;;;;;93.78;87.15;;;;;;;;;;10192234;28;20521;-70
2022/09/16 04:56:20;;;;;;;97.25;90.13;;;;;;;;;;10192330;28;20045;-70
2022/09/16 05:01:17;;;;;;;93.53;87.20;;;;;;;;;;10191886;28;20507;-70
2022/09/16 05:06:15;;;;;;;90.75;84.38;;;;;;;;;;10190230;28;20049;-69
2022/09/16 05:11:18;;;;;;;89.03;82.85;;;;;;;;;;10191795;28;20053;-69
2022/09/16 05:16:15;;;;;;;90.88;84.57;;;;;;;;;;10191702;28;20056;-70
2022/09/16 05:21:13;;;;;;;91.38;85.18;;;;;;;;;;10191071;28;20060;-69
2022/09/16 05:26:10;;;;;;;92.55;85.80;;;;;;;;;;10188597;28;20405;-70
2022/09/16 05:31:17;;;;;;;89.60;83.20;;;;;;;;;;10159368;28;20081;-70
2022/09/16 05:36:14;;;;;;;90.45;83.68;;;;;;;;;;10183850;28;20104;-70
2022/09/16 05:41:11;;;;;;;102.63;94.93;;;;;;;;;;10198538;28;20515;-70
2022/09/16 05:46:10;;;;;;;105.25;97.57;;;;;;;;;;10197608;28;20042;-70
2022/09/16 05:51:06;;;;;;;104.10;96.82;;;;;;;;;;10198580;28;20153;-70
2022/09/16 05:56:04;;;;;;;106.78;99.38;;;;;;;;;;10197359;28;20037;-70
2022/09/16 06:01:01;;;;;;;104.20;96.70;;;;;;;;;;10197272;28;20089;-70
2022/09/16 06:06:00;;;;;;;103.95;96.78;;;;;;;;;;10196375;28;20053;-70
2022/09/16 06:11:00;;;;;;;104.82;97.22;;;;;;;;;;10197120;28;20500;-70
2022/09/16 06:15:56;;;;;;;103.35;96.15;;;;;;;;;;10196862;28;20042;-70
2022/09/16 06:20:53;;;;;;;107.20;98.93;;;;;;;;;;10196194;28;20071;-70
2022/09/16 06:25:57;;;;;;;105.72;98.05;;;;;;;;;;10196457;28;20038;-70
2022/09/16 06:31:00;;;;;;;106.82;99.13;;;;;;;;;;10171898;28;20045;-70
2022/09/16 06:35:57;;;;;;;106.43;99.07;;;;;;;;;;10174874;28;20073;-70
2022/09/16 06:40:56;;;;;;;111.57;103.57;;;;;;;;;;10155705;28;20042;-70
2022/09/16 06:45:55;;;;;;;105.95;98.55;;;;;;;;;;10178263;28;20061;-70
2022/09/16 06:51:02;;;;;;;110.95;103.57;;;;;;;;;;10195553;28;20431;-69
2022/09/16 06:55:59;;;;;;;113.07;105.50;;;;;;;;;;10195302;28;20451;-69
2022/09/16 07:00:55;;;;;;;101.55;94.82;;;;;;;;;;10195668;28;20041;-69
2022/09/16 07:06:00;;;;;;;106.40;99.15;;;;;;;;;;10194765;28;20523;-69
2022/09/16 07:11:01;;;;;;;111.30;104.45;;;;;;;;;;10194045;28;20496;-69
2022/09/16 07:15:58;;;;;;;111.90;104.93;;;;;;;;;;10178739;28;20060;-69
2022/09/16 07:21:09;;;;;;;105.32;99.13;;;;;;;;;;10194542;28;20041;-70
2022/09/16 07:26:07;;;;;;;109.97;103.60;;;;;;;;;;10194774;28;20046;-69
2022/09/16 07:31:06;;;;;;;104.72;98.32;;;;;;;;;;10194258;28;20041;-69
2022/09/16 07:36:04;;;;;;;100.95;95.13;;;;;;;;;;10194435;28;20045;-70
2022/09/16 07:41:07;;;;;;;91.85;86.18;;;;;;;;;;10193878;28;20056;-70
2022/09/16 07:46:03;;;;;;;83.30;78.10;;;;;;;;;;10193814;28;20042;-70
2022/09/16 07:51:02;;;;;;;74.57;69.95;;;;;;;;;;10193632;28;20045;-70
2022/09/16 07:56:02;;;;;;;52.42;49.20;;;;;;;;;;10192448;28;20482;-70
2022/09/16 08:00:59;;;;;;;51.28;48.03;;;;;;;;;;10193363;28;20492;-70
2022/09/16 08:06:17;;;;;;;32.08;29.52;;;;;;;;;;10184016;28;20050;-70
2022/09/16 08:11:14;;;;;;;31.00;28.80;;;;;;;;;;10191841;28;20052;-70
2022/09/16 08:16:11;;;;;;;25.23;23.08;;;;;;;;;;10178568;28;20046;-70
2022/09/16 08:21:09;;;;;;;27.00;24.95;;;;;;;;;;10182274;28;20057;-70
2022/09/16 08:26:07;;;;;;;25.83;23.95;;;;;;;;;;10191901;28;20129;-70
2022/09/16 08:31:03;;;;;;;26.45;24.35;;;;;;;;;;10182461;28;20108;-70
2022/09/16 08:36:00;;;;;;;21.65;19.45;;;;;;;;;;10176393;28;20038;-70
2022/09/16 08:41:00;;;;;;;17.88;16.38;;;;;;;;;;10164298;28;20038;-70
2022/09/16 08:46:01;;;;;;;17.85;16.58;;;;;;;;;;10176383;28;20093;-71
2022/09/16 08:50:59;;;;;;;20.35;18.73;;;;;;;;;;10155620;28;20619;-69
2022/09/16 08:55:55;;;;;;;26.90;24.85;;;;;;;;;;10175828;28;20038;-69
2022/09/16 09:00:53;;;;;;;18.05;16.55;;;;;;;;;;10194321;28;20057;-69
2022/09/16 09:05:55;;;;;;;22.20;20.38;;;;;;;;;;10184038;28;20053;-69
2022/09/16 09:10:56;;;;;;;22.67;20.95;;;;;;;;;;10160374;28;20047;-69
2022/09/16 09:15:58;;;;;;;23.77;21.60;;;;;;;;;;10182420;28;20046;-69
2022/09/16 09:21:01;;;;;;;22.05;17.42;;;;;;;;;;10199665;28;20649;-69
2022/09/16 09:26:17;;;;;;;18.88;16.13;;;;;;;;;;10199088;28;20516;-69
2022/09/16 09:31:13;;;;;;;14.85;13.55;;;;;;;;;;10198856;28;20052;-69
2022/09/16 09:36:16;;;;;;;18.70;17.23;;;;;;;;;;10198945;28;20077;-71
2022/09/16 09:41:31;;;;;;;27.98;26.25;;;;;;;;;;10199181;28;20077;-71
2022/09/16 09:46:34;;;;;;;40.63;38.00;;;;;;;;;;10198261;28;20087;-71
2022/09/16 09:51:36;;;;;;;42.83;40.17;;;;;;;;;;10198121;28;20053;-70
2022/09/16 09:56:35;;;;;;;38.67;36.38;;;;;;;;;;10197847;28;20423;-70
2022/09/16 10:01:31;;;;;;;23.63;21.35;;;;;;;;;;10196917;28;20054;-70
2022/09/16 10:06:32;;;;;;;17.70;16.05;;;;;;;;;;10197767;28;20053;-70
2022/09/16 10:11:32;;;;;;;14.90;12.95;;;;;;;;;;10170517;28;20054;-70
2022/09/16 10:16:33;;;;;;;15.75;11.80;;;;;;;;;;10185049;28;20052;-70
2022/09/16 10:21:38;;;;;;;17.25;11.80;;;;;;;;;;10159522;28;20678;-70
2022/09/16 10:26:38;;;;;;;11.80;10.85;;;;;;;;;;10185545;28;20048;-70
2022/09/16 10:31:36;;;;;;;11.60;10.20;;;;;;;;;;10197138;28;20042;-70
2022/09/16 10:36:33;;;;;;;12.05;10.80;;;;;;;;;;10170451;28;20129;-71
2022/09/16 10:41:45;;;;;;;11.90;9.25;;;;;;;;;;10157292;28;20048;-71
2022/09/16 10:46:55;;;;;;;9.38;8.48;;;;;;;;;;10186132;28;20060;-70
2022/09/16 10:51:51;;;;;;;9.63;8.70;;;;;;;;;;10172999;28;20050;-70
2022/09/16 10:56:49;;;;;;;10.25;8.30;;;;;;;;;;10186315;28;20069;-70
2022/09/16 11:01:57;;;;;;;10.20;8.32;;;;;;;;;;10195588;28;20553;-70
2022/09/16 11:06:56;;;;;;;11.40;8.25;;;;;;;;;;10195297;28;20507;-70
2022/09/16 11:12:11;;;;;;;9.32;8.38;;;;;;;;;;10194730;28;20049;-70
2022/09/16 11:17:28;;;;;;;11.18;8.27;;;;;;;;;;10180647;28;20046;-70
2022/09/16 11:22:42;;;;;;;13.60;9.52;;;;;;;;;;10155448;28;20066;-70
2022/09/16 11:27:38;;;;;;;;;;;;;;;;;;10192235;28;20068;-70
2022/09/16 11:32:34;;;;;;;24.02;22.42;;;;;;;;;;10182351;28;19928;-70
2022/09/16 11:37:43;;;;;;;31.35;28.63;;;;;;;;;;10190277;28;20073;-70
2022/09/16 11:42:48;;;;;;;25.33;23.42;;;;;;;;;;10193927;28;20050;-70
2022/09/16 11:47:48;;;;;;;19.27;17.08;;;;;;;;;;10188945;28;20046;-70
2022/09/16 11:53:08;;;;;;;20.20;18.42;;;;;;;;;;10154250;28;20068;-70
2022/09/16 11:58:15;;;;;;;16.83;15.20;;;;;;;;;;10175803;28;20085;-69
2022/09/16 12:03:21;;;;;;;12.60;11.40;;;;;;;;;;10193815;28;20522;-69
2022/09/16 12:08:24;;;;;;;14.20;11.40;;;;;;;;;;10163165;28;20094;-70
2022/09/16 12:13:25;;;;;;;13.68;10.23;;;;;;;;;;10162422;28;20052;-70
2022/09/16 12:18:25;;;;;;;9.50;8.77;;;;;;;;;;10193165;28;20053;-70
2022/09/16 12:23:29;;;;;;;11.63;9.23;;;;;;;;;;10175500;28;20050;-70
2022/09/16 12:28:30;;;;;;;12.70;10.80;;;;;;;;;;10193159;28;20046;-70
2022/09/16 12:33:33;;;;;;;32.42;29.52;;;;;;;;;;10192522;28;20053;-71
2022/09/16 12:38:30;;;;;;;47.15;44.05;;;;;;;;;;10200254;28;20559;-72
2022/09/16 12:43:26;;;;;;;78.22;73.88;;;;;;;;;;10201055;28;20042;-71
2022/09/16 12:48:35;;;;;;;59.38;55.92;;;;;;;;;;10200301;28;20054;-71
2022/09/16 12:53:50;;;;;;;19.13;17.50;;;;;;;;;;10200651;28;20042;-71
2022/09/16 12:59:06;;;;;;;21.67;20.05;;;;;;;;;;10166369;28;20050;-70
2022/09/16 13:04:15;;;;;;;47.10;44.08;;;;;;;;;;10169025;28;20045;-71
2022/09/16 13:09:14;;;;;;;31.70;29.58;;;;;;;;;;10199531;28;20396;-71
2022/09/16 13:14:24;;;;;;;25.02;23.48;;;;;;;;;;10199394;28;20046;-71
2022/09/16 13:19:20;;;;;;;16.05;14.70;;;;;;;;;;10199791;28;20645;-71
2022/09/16 13:24:30;;;;;;;16.30;15.18;;;;;;;;;;10198716;28;20046;-71
2022/09/16 13:29:38;;;;;;;28.30;26.33;;;;;;;;;;10197232;28;20042;-71
2022/09/16 13:34:34;;;;;;;28.67;26.63;;;;;;;;;;10198949;28;20426;-71
2022/09/16 13:39:32;;;;;;;33.90;31.88;;;;;;;;;;10197879;28;20056;-71
2022/09/16 13:44:29;;;;;;;38.20;35.28;;;;;;;;;;10198666;28;20050;-71
2022/09/16 13:49:26;;;;;;;44.20;41.42;;;;;;;;;;10197525;28;20046;-71
2022/09/16 13:54:35;;;;;;;59.85;55.92;;;;;;;;;;10197364;28;20054;-71
2022/09/16 13:59:54;;;;;;;64.88;60.65;;;;;;;;;;10197054;28;20046;-71
2022/09/16 14:05:04;;;;;;;113.53;106.72;;;;;;;;;;10197600;28;20411;-71
2022/09/16 14:10:10;;;;;;;112.50;105.68;;;;;;;;;;10196940;28;20072;-70
2022/09/16 14:15:07;;;;;;;117.95;110.15;;;;;;;;;;10197128;28;20429;-70
2022/09/16 14:20:03;;;;;;;133.43;124.40;;;;;;;;;;10196878;28;20050;-70
2022/09/16 14:25:00;;;;;;;123.63;115.15;;;;;;;;;;10196633;28;20050;-69
2022/09/16 14:30:17;;;;;;;126.88;118.10;;;;;;;;;;10197036;28;20499;-69
2022/09/16 14:35:16;;;;;;;99.13;91.72;;;;;;;;;;10194127;28;20048;-71
2022/09/16 14:40:15;;;;;;;90.60;83.60;;;;;;;;;;10195167;28;20046;-70
2022/09/16 14:45:15;;;;;;;85.47;78.57;;;;;;;;;;10195231;28;20073;-70
2022/09/16 14:50:32;;;;;;;92.03;84.78;;;;;;;;;;10196529;28;20124;-71
2022/09/16 14:55:29;;;;;;;82.22;75.25;;;;;;;;;;10194965;28;20050;-71
2022/09/16 15:00:28;;;;;;;105.95;97.32;;;;;;;;;;10193531;28;20124;-70
2022/09/16 15:05:34;;;;;;;94.30;87.10;;;;;;;;;;10175284;28;20042;-70
2022/09/16 15:10:31;;;;;;;84.70;78.03;;;;;;;;;;10194864;28;20042;-70
2022/09/16 15:16:10;;;;;;;82.05;74.90;;;;;;;;;;10195508;28;20042;-70
2022/09/16 15:21:07;;;;;;;59.75;54.70;;;;;;;;;;10154284;28;20038;-70
2022/09/16 15:26:14;;;;;;;60.47;54.88;;;;;;;;;;10179179;28;20044;-70
2022/09/16 15:31:11;;;;;;;56.63;51.72;;;;;;;;;;10194397;28;20045;-70
2022/09/16 15:36:31;;;;;;;57.72;52.88;;;;;;;;;;10193892;28;20046;-70
2022/09/16 15:41:29;;;;;;;60.53;55.38;;;;;;;;;;10193733;28;20050;-70
2022/09/16 15:46:26;;;;;;;66.78;60.95;;;;;;;;;;10193850;28;20049;-70
2022/09/16 15:51:22;;;;;;;64.25;58.53;;;;;;;;;;10193532;28;20116;-70
2022/09/16 15:56:27;;;;;;;75.00;68.37;;;;;;;;;;10193757;28;20046;-70
2022/09/16 16:01:26;;;;;;;58.60;53.80;;;;;;;;;;10173078;28;20050;-70
2022/09/16 16:06:41;;;;;;;69.50;63.35;;;;;;;;;;10180576;28;20054;-70
2022/09/16 16:11:39;;;;;;;68.40;62.55;;;;;;;;;;10192850;28;20054;-70
2022/09/16 16:16:36;;;;;;;69.20;63.22;;;;;;;;;;10193648;28;20530;-70
2022/09/16 16:21:53;;;;;;;66.72;60.47;;;;;;;;;;10165719;28;20049;-70
2022/09/16 16:26:50;;;;;;;57.50;52.63;;;;;;;;;;10183437;28;20108;-70
2022/09/16 16:32:01;;;;;;;62.45;56.80;;;;;;;;;;10193065;28;20046;-70
2022/09/16 16:36:57;;;;;;;60.72;55.10;;;;;;;;;;10167044;28;20114;-70
2022/09/16 16:41:53;;;;;;;67.15;61.20;;;;;;;;;;10152960;28;20073;-70
2022/09/16 16:46:51;;;;;;;68.20;62.17;;;;;;;;;;10183038;28;20060;-70
2022/09/16 16:51:49;;;;;;;74.00;66.60;;;;;;;;;;10191813;28;20053;-70
2022/09/16 16:56:46;;;;;;;74.47;67.57;;;;;;;;;;10191088;28;20053;-70
2022/09/16 17:01:44;;;;;;;69.22;62.60;;;;;;;;;;10192767;28;20056;-70
2022/09/16 17:06:44;;;;;;;77.50;69.93;;;;;;;;;;10192157;28;20125;-70
2022/09/16 17:11:53;;;;;;;71.80;64.63;;;;;;;;;;10192236;28;20050;-70
2022/09/16 17:16:50;;;;;;;80.25;71.65;;;;;;;;;;10191997;28;20045;-70
2022/09/16 17:21:48;;;;;;;79.07;70.70;;;;;;;;;;10158510;28;20458;-70
2022/09/16 17:26:45;;;;;;;79.25;66.30;;;;;;;;;;10189707;28;20508;-70
2022/09/16 17:31:42;;;;;;;84.15;73.72;;;;;;;;;;10198864;28;20046;-70
2022/09/16 17:36:39;;;;;;;73.32;65.50;;;;;;;;;;10198659;28;20050;-70
2022/09/16 17:41:36;;;;;;;94.65;68.72;;;;;;;;;;10198927;28;20056;-70
2022/09/16 17:46:33;;;;;;;46.25;41.75;;;;;;;;;;10197757;28;20053;-70
2022/09/16 17:51:30;;;;;;;47.60;42.90;;;;;;;;;;10197574;28;20046;-70
2022/09/16 17:56:26;;;;;;;47.42;42.50;;;;;;;;;;10197921;28;20120;-70
2022/09/16 18:01:23;;;;;;;48.65;43.58;;;;;;;;;;10198387;28;20050;-70
2022/09/16 18:06:46;;;;;;;52.55;46.75;;;;;;;;;;10197228;28;20052;-70
2022/09/16 18:11:43;;;;;;;50.57;45.40;;;;;;;;;;10196809;28;20050;-70
2022/09/16 18:16:39;;;;;;;49.60;44.55;;;;;;;;;;10197469;28;20060;-70
2022/09/16 18:21:36;;;;;;;48.17;43.97;;;;;;;;;;10196960;28;20520;-70
2022/09/16 18:26:33;;;;;;;49.85;44.90;;;;;;;;;;10196738;28;20647;-70
2022/09/16 18:31:31;;;;;;;49.20;44.25;;;;;;;;;;10197003;28;20045;-70
2022/09/16 18:36:29;;;;;;;50.70;45.63;;;;;;;;;;10196176;28;20524;-70
2022/09/16 18:41:26;;;;;;;50.25;45.53;;;;;;;;;;10197090;28;20133;-70
2022/09/16 18:46:26;;;;;;;51.95;47.08;;;;;;;;;;10196287;28;20403;-70
2022/09/16 18:51:23;;;;;;;48.97;44.10;;;;;;;;;;10196256;28;20050;-71
2022/09/16 18:56:21;;;;;;;52.42;47.40;;;;;;;;;;10195077;28;20077;-70
2022/09/16 19:01:25;;;;;;;53.78;48.85;;;;;;;;;;10195923;28;20052;-70
2022/09/16 19:06:25;;;;;;;52.47;47.88;;;;;;;;;;10190321;28;20121;-70
2022/09/16 19:11:22;;;;;;;52.92;47.90;;;;;;;;;;10195148;28;20515;-70
2022/09/16 19:16:18;;;;;;;53.13;48.03;;;;;;;;;;10195228;28;20042;-70
2022/09/16 19:21:16;;;;;;;56.47;51.28;;;;;;;;;;10195113;28;20490;-70
2022/09/16 19:26:14;;;;;;;56.97;51.78;;;;;;;;;;10194438;28;20045;-70
2022/09/16 19:31:11;;;;;;;54.00;49.50;;;;;;;;;;10194287;28;20085;-70
2022/09/16 19:36:11;;;;;;;56.38;51.20;;;;;;;;;;10187143;28;20042;-70
2022/09/16 19:41:07;;;;;;;53.60;49.22;;;;;;;;;;10155039;28;20038;-70
2022/09/16 19:46:05;;;;;;;53.17;48.75;;;;;;;;;;10154635;28;20035;-70
2022/09/16 19:51:03;;;;;;;57.60;52.28;;;;;;;;;;10155421;28;20412;-70
2022/09/16 19:56:01;;;;;;;56.15;51.22;;;;;;;;;;10194764;28;20046;-70
2022/09/16 20:00:58;;;;;;;59.28;54.25;;;;;;;;;;10193920;28;20417;-70
2022/09/16 20:06:14;;;;;;;62.53;56.55;;;;;;;;;;10193107;28;20060;-70
2022/09/16 20:11:18;;;;;;;62.28;56.03;;;;;;;;;;10193252;28;20054;-70
2022/09/16 20:16:15;;;;;;;59.50;54.28;;;;;;;;;;10193098;28;20052;-70
2022/09/16 20:21:13;;;;;;;62.80;57.00;;;;;;;;;;10192683;28;20045;-70
2022/09/16 20:26:12;;;;;;;58.03;53.13;;;;;;;;;;10193111;28;20507;-70
2022/09/16 20:31:11;;;;;;;55.97;51.22;;;;;;;;;;10153764;28;20073;-70
2022/09/16 20:36:08;;;;;;;58.38;52.40;;;;;;;;;;10177520;28;20046;-70
2022/09/16 20:41:06;;;;;;;56.53;51.60;;;;;;;;;;10193128;28;20419;-70
2022/09/16 20:46:06;;;;;;;60.55;55.38;;;;;;;;;;10192587;28;20547;-70
2022/09/16 20:51:03;;;;;;;56.08;51.10;;;;;;;;;;10192678;28;20050;-70
2022/09/16 20:56:00;;;;;;;58.38;53.35;;;;;;;;;;10192925;28;20052;-70
2022/09/16 21:01:16;;;;;;;59.17;53.75;;;;;;;;;;10200334;28;20070;-70
2022/09/16 21:06:14;;;;;;;59.70;54.25;;;;;;;;;;10199915;28;20045;-70
2022/09/16 21:11:11;;;;;;;60.67;55.05;;;;;;;;;;10200487;28;20042;-70
2022/09/16 21:16:08;;;;;;;61.67;56.13;;;;;;;;;;10199599;28;20041;-70
2022/09/16 21:21:05;;;;;;;58.75;53.03;;;;;;;;;;10199361;28;20500;-70
2022/09/16 21:26:06;;;;;;;57.40;52.35;;;;;;;;;;10199580;28;20038;-70
2022/09/16 21:31:15;;;;;;;57.40;52.63;;;;;;;;;;10199058;28;20038;-70
2022/09/16 21:36:12;;;;;;;61.30;55.65;;;;;;;;;;10197426;28;20046;-70
2022/09/16 21:41:16;;;;;;;58.17;53.08;;;;;;;;;;10198771;28;20053;-70
2022/09/16 21:46:13;;;;;;;60.28;55.38;;;;;;;;;;10198742;28;20076;-69
2022/09/16 21:51:10;;;;;;;62.33;56.50;;;;;;;;;;10161407;28;20460;-70
2022/09/16 21:56:08;;;;;;;62.40;57.35;;;;;;;;;;10182983;28;20042;-69
2022/09/16 22:01:15;;;;;;;61.35;55.53;;;;;;;;;;10197428;28;20047;-70
2022/09/16 22:06:13;;;;;;;59.45;53.83;;;;;;;;;;10197309;28;20129;-70
2022/09/16 22:11:13;;;;;;;63.83;57.72;;;;;;;;;;10197426;28;20538;-70
2022/09/16 22:16:16;;;;;;;63.30;57.58;;;;;;;;;;10197103;28;20397;-70
2022/09/16 22:21:13;;;;;;;62.60;56.85;;;;;;;;;;10197252;28;20136;-69
2022/09/16 22:26:11;;;;;;;64.85;58.42;;;;;;;;;;10196917;28;20049;-69
2022/09/16 22:31:08;;;;;;;62.80;57.20;;;;;;;;;;10197512;28;20042;-70
2022/09/16 22:36:05;;;;;;;68.55;61.75;;;;;;;;;;10196470;28;20042;-69
2022/09/16 22:41:06;;;;;;;65.20;59.13;;;;;;;;;;10190271;28;20053;-69
2022/09/16 22:46:03;;;;;;;65.22;59.40;;;;;;;;;;10180601;28;20045;-69
2022/09/16 22:50:59;;;;;;;76.82;70.03;;;;;;;;;;10195833;28;20046;-70
2022/09/16 22:55:56;;;;;;;72.90;66.68;;;;;;;;;;10195624;28;20045;-69
2022/09/16 23:00:59;;;;;;;72.68;66.00;;;;;;;;;;10170285;28;20046;-69
2022/09/16 23:05:56;;;;;;;76.78;69.45;;;;;;;;;;10178696;28;20072;-69
2022/09/16 23:10:53;;;;;;;70.20;63.22;;;;;;;;;;10195733;28;20038;-69
2022/09/16 23:15:52;;;;;;;77.88;71.30;;;;;;;;;;10191566;28;20058;-70
2022/09/16 23:20:58;;;;;;;73.30;66.50;;;;;;;;;;10154141;28;20137;-70
2022/09/16 23:25:55;;;;;;;77.05;69.78;;;;;;;;;;10158895;28;20046;-70
2022/09/16 23:30:51;;;;;;;79.85;71.45;;;;;;;;;;10155270;28;20058;-70
2022/09/16 23:35:50;;;;;;;79.43;72.00;;;;;;;;;;10183831;28;20551;-69
2022/09/16 23:40:47;;;;;;;76.50;69.65;;;;;;;;;;10195190;28;20539;-70
2022/09/16 23:45:44;;;;;;;79.88;72.63;;;;;;;;;;10186298;28;20133;-70
2022/09/16 23:50:42;;;;;;;71.15;64.43;;;;;;;;;;10193798;28;20057;-70
2022/09/16 23:55:42;;;;;;;76.95;70.50;;;;;;;;;;10194074;28;20535;-70
